Аэропорт: Витязево. Анапа

ICAO: URKA

METAR:
2019/03/26 13:00
URKA 261300Z 25005MPS 210V280 CAVOK 10/05 Q1013 R22/000170 NOSIG RMK QFE755/1007
METAR:
2019/03/26 12:21
TAF TAF URKA 261057Z 2612/2712 25003G08MPS CAVOK 
     FM261800 34003G08MPS 3100 BR SCT011 SCT030 
     FM270700 23003G08MPS 9999 SCT020CB